sensor_id;sensor_type;location;lat;lon;timestamp;temperature;humidity
30069;DHT22;16894;49.456;10.644;2023-02-03T00:00:26;5.10;99.90
30069;DHT22;16894;49.456;10.644;2023-02-03T00:02:53;5.10;99.90
30069;DHT22;16894;49.456;10.644;2023-02-03T00:05:19;5.10;99.90
30069;DHT22;16894;49.456;10.644;2023-02-03T00:07:45;5.10;99.90
30069;DHT22;16894;49.456;10.644;2023-02-03T00:10:11;5.10;99.90
30069;DHT22;16894;49.456;10.644;2023-02-03T00:12:36;5.00;99.90
30069;DHT22;16894;49.456;10.644;2023-02-03T00:15:02;5.00;99.90
30069;DHT22;16894;49.456;10.644;2023-02-03T00:17:28;5.00;99.90
30069;DHT22;16894;49.456;10.644;2023-02-03T00:19:54;5.10;99.90
30069;DHT22;16894;49.456;10.644;2023-02-03T00:22:19;5.10;99.90
30069;DHT22;16894;49.456;10.644;2023-02-03T00:24:45;5.10;99.90
30069;DHT22;16894;49.456;10.644;2023-02-03T00:27:10;5.10;99.90
30069;DHT22;16894;49.456;10.644;2023-02-03T00:29:36;5.10;99.90
30069;DHT22;16894;49.456;10.644;2023-02-03T00:32:02;5.10;99.90
30069;DHT22;16894;49.456;10.644;2023-02-03T00:34:28;5.10;99.90
30069;DHT22;16894;49.456;10.644;2023-02-03T00:36:55;5.00;99.90
30069;DHT22;16894;49.456;10.644;2023-02-03T00:39:20;5.00;99.90
30069;DHT22;16894;49.456;10.644;2023-02-03T00:41:47;5.00;99.90
30069;DHT22;16894;49.456;10.644;2023-02-03T00:44:13;5.00;99.90
30069;DHT22;16894;49.456;10.644;2023-02-03T00:46:39;5.00;99.90
30069;DHT22;16894;49.456;10.644;2023-02-03T00:49:05;5.00;99.90
30069;DHT22;16894;49.456;10.644;2023-02-03T00:51:32;5.10;99.90
30069;DHT22;16894;49.456;10.644;2023-02-03T00:53:58;5.10;99.90
30069;DHT22;16894;49.456;10.644;2023-02-03T00:56:23;5.10;99.90
30069;DHT22;16894;49.456;10.644;2023-02-03T00:58:49;5.10;99.90
30069;DHT22;16894;49.456;10.644;2023-02-03T01:01:15;5.00;99.90
30069;DHT22;16894;49.456;10.644;2023-02-03T01:03:40;5.10;99.90
30069;DHT22;16894;49.456;10.644;2023-02-03T01:06:15;5.10;99.90
30069;DHT22;16894;49.456;10.644;2023-02-03T01:08:41;5.10;99.90
30069;DHT22;16894;49.456;10.644;2023-02-03T01:11:18;5.10;99.90
30069;DHT22;16894;49.456;10.644;2023-02-03T01:13:44;5.10;99.90
30069;DHT22;16894;49.456;10.644;2023-02-03T01:16:12;5.10;99.90
30069;DHT22;16894;49.456;10.644;2023-02-03T01:18:38;5.10;99.90
30069;DHT22;16894;49.456;10.644;2023-02-03T01:21:08;5.10;99.90
30069;DHT22;16894;49.456;10.644;2023-02-03T01:23:34;5.10;99.90
30069;DHT22;16894;49.456;10.644;2023-02-03T01:26:08;5.10;99.90
30069;DHT22;16894;49.456;10.644;2023-02-03T01:28:34;5.10;99.90
30069;DHT22;16894;49.456;10.644;2023-02-03T01:31:13;5.10;99.90
30069;DHT22;16894;49.456;10.644;2023-02-03T01:33:39;5.10;99.90
30069;DHT22;16894;49.456;10.644;2023-02-03T01:36:09;5.10;99.90
30069;DHT22;16894;49.456;10.644;2023-02-03T01:38:35;5.10;99.90
30069;DHT22;16894;49.456;10.644;2023-02-03T01:41:02;5.10;99.90
30069;DHT22;16894;49.456;10.644;2023-02-03T01:43:39;5.10;99.90
30069;DHT22;16894;49.456;10.644;2023-02-03T01:49:09;5.10;99.90
30069;DHT22;16894;49.456;10.644;2023-02-03T01:51:37;5.10;99.90
30069;DHT22;16894;49.456;10.644;2023-02-03T01:54:05;5.10;99.90
30069;DHT22;16894;49.456;10.644;2023-02-03T01:56:34;5.20;99.90
30069;DHT22;16894;49.456;10.644;2023-02-03T01:59:01;5.20;99.90
30069;DHT22;16894;49.456;10.644;2023-02-03T02:01:29;5.10;99.90
30069;DHT22;16894;49.456;10.644;2023-02-03T02:03:58;5.20;99.90
30069;DHT22;16894;49.456;10.644;2023-02-03T02:13:21;5.20;99.90
30069;DHT22;16894;49.456;10.644;2023-02-03T02:27:38;5.20;99.90
30069;DHT22;16894;49.456;10.644;2023-02-03T02:36:43;5.30;99.90
30069;DHT22;16894;49.456;10.644;2023-02-03T02:46:48;5.30;99.90
30069;DHT22;16894;49.456;10.644;2023-02-03T02:50:02;5.30;99.90
30069;DHT22;16894;49.456;10.644;2023-02-03T02:52:31;5.30;99.90
30069;DHT22;16894;49.456;10.644;2023-02-03T02:55:03;5.40;99.90
30069;DHT22;16894;49.456;10.644;2023-02-03T02:57:30;5.30;99.90
30069;DHT22;16894;49.456;10.644;2023-02-03T02:59:58;5.30;99.90
30069;DHT22;16894;49.456;10.644;2023-02-03T03:02:34;5.30;99.90
30069;DHT22;16894;49.456;10.644;2023-02-03T03:05:01;5.30;99.90
30069;DHT22;16894;49.456;10.644;2023-02-03T03:07:34;5.30;99.90
30069;DHT22;16894;49.456;10.644;2023-02-03T03:10:04;5.30;99.90
30069;DHT22;16894;49.456;10.644;2023-02-03T03:12:38;5.30;99.90
30069;DHT22;16894;49.456;10.644;2023-02-03T03:15:10;5.30;99.90
30069;DHT22;16894;49.456;10.644;2023-02-03T03:18:00;5.30;99.90
30069;DHT22;16894;49.456;10.644;2023-02-03T03:20:29;5.40;99.90
30069;DHT22;16894;49.456;10.644;2023-02-03T03:23:02;5.40;99.90
30069;DHT22;16894;49.456;10.644;2023-02-03T03:25:35;5.40;99.90
30069;DHT22;16894;49.456;10.644;2023-02-03T03:28:09;5.40;99.90
30069;DHT22;16894;49.456;10.644;2023-02-03T03:30:38;5.40;99.90
30069;DHT22;16894;49.456;10.644;2023-02-03T03:33:05;5.40;99.90
30069;DHT22;16894;49.456;10.644;2023-02-03T03:35:38;5.40;99.90
30069;DHT22;16894;49.456;10.644;2023-02-03T03:38:22;5.40;99.90
30069;DHT22;16894;49.456;10.644;2023-02-03T03:41:34;5.40;99.90
30069;DHT22;16894;49.456;10.644;2023-02-03T03:43:42;5.50;99.90
30069;DHT22;16894;49.456;10.644;2023-02-03T03:46:13;5.50;99.90
30069;DHT22;16894;49.456;10.644;2023-02-03T03:48:54;5.50;99.90
30069;DHT22;16894;49.456;10.644;2023-02-03T03:51:33;5.50;99.90
30069;DHT22;16894;49.456;10.644;2023-02-03T03:54:04;5.50;99.90
30069;DHT22;16894;49.456;10.644;2023-02-03T03:56:58;5.50;99.90
30069;DHT22;16894;49.456;10.644;2023-02-03T03:59:23;5.50;99.90
30069;DHT22;16894;49.456;10.644;2023-02-03T04:01:50;5.50;99.90
30069;DHT22;16894;49.456;10.644;2023-02-03T04:04:16;5.50;99.90
30069;DHT22;16894;49.456;10.644;2023-02-03T04:06:42;5.50;99.90
30069;DHT22;16894;49.456;10.644;2023-02-03T04:09:08;5.50;99.90
30069;DHT22;16894;49.456;10.644;2023-02-03T04:11:34;5.50;99.90
30069;DHT22;16894;49.456;10.644;2023-02-03T04:14:18;5.50;99.90
30069;DHT22;16894;49.456;10.644;2023-02-03T04:16:44;5.40;99.90
30069;DHT22;16894;49.456;10.644;2023-02-03T04:19:09;5.50;99.90
30069;DHT22;16894;49.456;10.644;2023-02-03T04:21:35;5.40;99.90
30069;DHT22;16894;49.456;10.644;2023-02-03T04:24:00;5.40;99.90
30069;DHT22;16894;49.456;10.644;2023-02-03T04:26:26;5.40;99.90
30069;DHT22;16894;49.456;10.644;2023-02-03T04:28:52;5.40;99.90
30069;DHT22;16894;49.456;10.644;2023-02-03T04:31:17;5.40;99.90
30069;DHT22;16894;49.456;10.644;2023-02-03T04:33:43;5.40;99.90
30069;DHT22;16894;49.456;10.644;2023-02-03T04:36:09;5.40;99.90
30069;DHT22;16894;49.456;10.644;2023-02-03T04:38:34;5.40;99.90
30069;DHT22;16894;49.456;10.644;2023-02-03T04:41:00;5.40;99.90
30069;DHT22;16894;49.456;10.644;2023-02-03T04:43:25;5.40;99.90
30069;DHT22;16894;49.456;10.644;2023-02-03T04:45:51;5.50;99.90
30069;DHT22;16894;49.456;10.644;2023-02-03T04:48:17;5.50;99.90
30069;DHT22;16894;49.456;10.644;2023-02-03T04:50:42;5.40;99.90
30069;DHT22;16894;49.456;10.644;2023-02-03T04:53:08;5.40;99.90
30069;DHT22;16894;49.456;10.644;2023-02-03T04:55:33;5.50;99.90
30069;DHT22;16894;49.456;10.644;2023-02-03T04:58:00;5.40;99.90
30069;DHT22;16894;49.456;10.644;2023-02-03T05:00:26;5.40;99.90
30069;DHT22;16894;49.456;10.644;2023-02-03T05:02:53;5.40;99.90
30069;DHT22;16894;49.456;10.644;2023-02-03T05:05:19;5.40;99.90
30069;DHT22;16894;49.456;10.644;2023-02-03T05:07:45;5.40;99.90
30069;DHT22;16894;49.456;10.644;2023-02-03T05:10:11;5.40;99.90
30069;DHT22;16894;49.456;10.644;2023-02-03T05:12:36;5.40;99.90
30069;DHT22;16894;49.456;10.644;2023-02-03T05:15:02;5.40;99.90
30069;DHT22;16894;49.456;10.644;2023-02-03T05:17:28;5.40;99.90
30069;DHT22;16894;49.456;10.644;2023-02-03T05:19:53;5.40;99.90
30069;DHT22;16894;49.456;10.644;2023-02-03T05:22:19;5.40;99.90
30069;DHT22;16894;49.456;10.644;2023-02-03T05:24:45;5.40;99.90
30069;DHT22;16894;49.456;10.644;2023-02-03T05:27:10;5.40;99.90
30069;DHT22;16894;49.456;10.644;2023-02-03T05:29:36;5.40;99.90
30069;DHT22;16894;49.456;10.644;2023-02-03T05:32:02;5.40;99.90
30069;DHT22;16894;49.456;10.644;2023-02-03T05:34:29;5.40;99.90
30069;DHT22;16894;49.456;10.644;2023-02-03T05:36:54;5.40;99.90
30069;DHT22;16894;49.456;10.644;2023-02-03T05:39:20;5.40;99.90
30069;DHT22;16894;49.456;10.644;2023-02-03T05:41:46;5.40;99.90
30069;DHT22;16894;49.456;10.644;2023-02-03T05:44:22;5.30;99.90
30069;DHT22;16894;49.456;10.644;2023-02-03T05:46:49;5.30;99.90
30069;DHT22;16894;49.456;10.644;2023-02-03T05:49:15;5.40;99.90
30069;DHT22;16894;49.456;10.644;2023-02-03T05:51:40;5.40;99.90
30069;DHT22;16894;49.456;10.644;2023-02-03T05:54:07;5.40;99.90
30069;DHT22;16894;49.456;10.644;2023-02-03T05:56:32;5.30;99.90
30069;DHT22;16894;49.456;10.644;2023-02-03T05:58:58;5.30;99.90
30069;DHT22;16894;49.456;10.644;2023-02-03T06:01:28;5.30;99.90
30069;DHT22;16894;49.456;10.644;2023-02-03T06:03:54;5.20;99.90
30069;DHT22;16894;49.456;10.644;2023-02-03T06:06:20;5.20;99.90
30069;DHT22;16894;49.456;10.644;2023-02-03T06:08:45;5.20;99.90
30069;DHT22;16894;49.456;10.644;2023-02-03T06:11:11;5.20;99.90
30069;DHT22;16894;49.456;10.644;2023-02-03T06:13:37;5.20;99.90
30069;DHT22;16894;49.456;10.644;2023-02-03T06:16:03;5.20;99.90
30069;DHT22;16894;49.456;10.644;2023-02-03T06:18:29;5.20;99.90
30069;DHT22;16894;49.456;10.644;2023-02-03T06:20:55;5.20;99.90
30069;DHT22;16894;49.456;10.644;2023-02-03T06:23:20;5.20;99.90
30069;DHT22;16894;49.456;10.644;2023-02-03T06:25:50;5.20;99.90
30069;DHT22;16894;49.456;10.644;2023-02-03T06:28:16;5.20;99.90
30069;DHT22;16894;49.456;10.644;2023-02-03T06:30:42;5.20;99.90
30069;DHT22;16894;49.456;10.644;2023-02-03T06:33:08;5.20;99.90
30069;DHT22;16894;49.456;10.644;2023-02-03T06:35:33;5.20;99.90
30069;DHT22;16894;49.456;10.644;2023-02-03T06:38:00;5.20;99.90
30069;DHT22;16894;49.456;10.644;2023-02-03T06:40:26;5.20;99.90
30069;DHT22;16894;49.456;10.644;2023-02-03T06:42:51;5.20;99.90
30069;DHT22;16894;49.456;10.644;2023-02-03T06:45:17;5.20;99.90
30069;DHT22;16894;49.456;10.644;2023-02-03T06:47:44;5.20;99.90
30069;DHT22;16894;49.456;10.644;2023-02-03T06:50:12;5.20;99.90
30069;DHT22;16894;49.456;10.644;2023-02-03T06:52:39;5.20;99.90
30069;DHT22;16894;49.456;10.644;2023-02-03T06:55:05;5.20;99.90
30069;DHT22;16894;49.456;10.644;2023-02-03T06:57:32;5.20;99.90
30069;DHT22;16894;49.456;10.644;2023-02-03T06:59:57;5.30;99.90
30069;DHT22;16894;49.456;10.644;2023-02-03T07:02:23;5.30;99.90
30069;DHT22;16894;49.456;10.644;2023-02-03T07:04:49;5.30;99.90
30069;DHT22;16894;49.456;10.644;2023-02-03T07:07:14;5.40;99.90
30069;DHT22;16894;49.456;10.644;2023-02-03T07:09:40;5.40;99.90
30069;DHT22;16894;49.456;10.644;2023-02-03T07:12:07;5.40;99.90
30069;DHT22;16894;49.456;10.644;2023-02-03T07:14:33;5.40;99.90
30069;DHT22;16894;49.456;10.644;2023-02-03T07:17:04;5.40;99.90
30069;DHT22;16894;49.456;10.644;2023-02-03T07:19:30;5.40;99.90
30069;DHT22;16894;49.456;10.644;2023-02-03T07:21:56;5.40;99.90
30069;DHT22;16894;49.456;10.644;2023-02-03T07:24:22;5.40;99.90
30069;DHT22;16894;49.456;10.644;2023-02-03T07:26:47;5.40;99.90
30069;DHT22;16894;49.456;10.644;2023-02-03T07:29:13;5.40;99.90
30069;DHT22;16894;49.456;10.644;2023-02-03T07:31:39;5.40;99.90
30069;DHT22;16894;49.456;10.644;2023-02-03T07:34:04;5.40;99.90
30069;DHT22;16894;49.456;10.644;2023-02-03T07:36:31;5.40;99.90
30069;DHT22;16894;49.456;10.644;2023-02-03T07:38:57;5.40;99.90
30069;DHT22;16894;49.456;10.644;2023-02-03T07:41:23;5.40;99.90
30069;DHT22;16894;49.456;10.644;2023-02-03T07:43:48;5.40;99.90
30069;DHT22;16894;49.456;10.644;2023-02-03T07:46:14;5.40;99.90
30069;DHT22;16894;49.456;10.644;2023-02-03T07:48:40;5.50;99.90
30069;DHT22;16894;49.456;10.644;2023-02-03T07:51:06;5.50;99.90
30069;DHT22;16894;49.456;10.644;2023-02-03T07:53:32;5.50;99.90
30069;DHT22;16894;49.456;10.644;2023-02-03T07:56:03;5.50;99.90
30069;DHT22;16894;49.456;10.644;2023-02-03T07:58:29;5.50;99.90
30069;DHT22;16894;49.456;10.644;2023-02-03T08:00:56;5.50;99.90
30069;DHT22;16894;49.456;10.644;2023-02-03T08:03:22;5.60;99.90
30069;DHT22;16894;49.456;10.644;2023-02-03T08:05:47;5.60;99.90
30069;DHT22;16894;49.456;10.644;2023-02-03T08:08:13;5.50;99.90
30069;DHT22;16894;49.456;10.644;2023-02-03T08:10:39;5.50;99.90
30069;DHT22;16894;49.456;10.644;2023-02-03T08:13:04;5.50;99.90
30069;DHT22;16894;49.456;10.644;2023-02-03T08:15:30;5.60;99.90
30069;DHT22;16894;49.456;10.644;2023-02-03T08:17:56;5.60;99.90
30069;DHT22;16894;49.456;10.644;2023-02-03T08:20:21;5.60;99.90
30069;DHT22;16894;49.456;10.644;2023-02-03T08:22:53;5.70;99.90
30069;DHT22;16894;49.456;10.644;2023-02-03T08:25:18;5.70;99.90
30069;DHT22;16894;49.456;10.644;2023-02-03T08:27:44;5.70;99.90
30069;DHT22;16894;49.456;10.644;2023-02-03T08:30:12;5.70;99.90
30069;DHT22;16894;49.456;10.644;2023-02-03T08:32:38;5.70;99.90
30069;DHT22;16894;49.456;10.644;2023-02-03T08:35:04;5.80;99.90
30069;DHT22;16894;49.456;10.644;2023-02-03T08:37:30;5.80;99.90
30069;DHT22;16894;49.456;10.644;2023-02-03T08:39:57;5.80;99.90
30069;DHT22;16894;49.456;10.644;2023-02-03T08:42:23;5.80;99.90
30069;DHT22;16894;49.456;10.644;2023-02-03T08:44:48;5.80;99.90
30069;DHT22;16894;49.456;10.644;2023-02-03T08:47:15;5.80;99.90
30069;DHT22;16894;49.456;10.644;2023-02-03T08:49:40;5.90;99.90
30069;DHT22;16894;49.456;10.644;2023-02-03T08:52:07;5.90;99.90
30069;DHT22;16894;49.456;10.644;2023-02-03T08:54:35;6.00;99.90
30069;DHT22;16894;49.456;10.644;2023-02-03T08:57:01;6.00;99.90
30069;DHT22;16894;49.456;10.644;2023-02-03T08:59:27;6.00;99.90
30069;DHT22;16894;49.456;10.644;2023-02-03T09:01:53;6.00;99.90
30069;DHT22;16894;49.456;10.644;2023-02-03T09:04:20;6.00;99.90
30069;DHT22;16894;49.456;10.644;2023-02-03T09:06:52;6.00;99.90
30069;DHT22;16894;49.456;10.644;2023-02-03T09:09:21;6.10;99.90
30069;DHT22;16894;49.456;10.644;2023-02-03T09:11:47;6.10;99.90
30069;DHT22;16894;49.456;10.644;2023-02-03T09:14:13;6.10;99.90
30069;DHT22;16894;49.456;10.644;2023-02-03T09:16:38;6.10;99.90
30069;DHT22;16894;49.456;10.644;2023-02-03T09:19:04;6.20;99.90
30069;DHT22;16894;49.456;10.644;2023-02-03T09:21:30;6.20;99.90
30069;DHT22;16894;49.456;10.644;2023-02-03T09:23:59;6.20;99.90
30069;DHT22;16894;49.456;10.644;2023-02-03T09:26:26;6.20;99.90
30069;DHT22;16894;49.456;10.644;2023-02-03T09:28:51;6.30;99.90
30069;DHT22;16894;49.456;10.644;2023-02-03T09:31:17;6.30;99.90
30069;DHT22;16894;49.456;10.644;2023-02-03T09:33:44;6.40;99.90
30069;DHT22;16894;49.456;10.644;2023-02-03T09:36:10;6.40;99.90
30069;DHT22;16894;49.456;10.644;2023-02-03T09:38:37;6.40;99.90
30069;DHT22;16894;49.456;10.644;2023-02-03T09:41:30;6.50;99.90
30069;DHT22;16894;49.456;10.644;2023-02-03T09:46:44;6.50;99.90
30069;DHT22;16894;49.456;10.644;2023-02-03T09:49:15;6.50;99.90
30069;DHT22;16894;49.456;10.644;2023-02-03T09:51:47;6.50;99.90
30069;DHT22;16894;49.456;10.644;2023-02-03T09:54:36;6.50;99.90
30069;DHT22;16894;49.456;10.644;2023-02-03T09:57:06;6.50;99.90
30069;DHT22;16894;49.456;10.644;2023-02-03T09:59:38;6.60;99.90
30069;DHT22;16894;49.456;10.644;2023-02-03T10:07:40;6.70;99.90
30069;DHT22;16894;49.456;10.644;2023-02-03T10:10:17;6.80;99.90
30069;DHT22;16894;49.456;10.644;2023-02-03T10:12:48;6.90;99.90
30069;DHT22;16894;49.456;10.644;2023-02-03T10:15:50;7.00;99.90
30069;DHT22;16894;49.456;10.644;2023-02-03T10:18:24;7.00;99.90
30069;DHT22;16894;49.456;10.644;2023-02-03T10:21:30;7.10;99.90
30069;DHT22;16894;49.456;10.644;2023-02-03T10:23:59;7.10;99.90
30069;DHT22;16894;49.456;10.644;2023-02-03T10:26:26;7.20;99.90
30069;DHT22;16894;49.456;10.644;2023-02-03T10:28:57;7.30;99.90
30069;DHT22;16894;49.456;10.644;2023-02-03T10:31:31;7.40;99.90
30069;DHT22;16894;49.456;10.644;2023-02-03T10:34:15;7.40;99.90
30069;DHT22;16894;49.456;10.644;2023-02-03T10:36:57;7.30;99.90
30069;DHT22;16894;49.456;10.644;2023-02-03T10:41:54;7.20;99.90
30069;DHT22;16894;49.456;10.644;2023-02-03T10:44:32;7.20;99.90
30069;DHT22;16894;49.456;10.644;2023-02-03T10:47:00;7.20;99.90
30069;DHT22;16894;49.456;10.644;2023-02-03T10:49:27;7.30;99.90
30069;DHT22;16894;49.456;10.644;2023-02-03T10:51:57;7.20;99.90
30069;DHT22;16894;49.456;10.644;2023-02-03T10:54:35;7.30;99.90
30069;DHT22;16894;49.456;10.644;2023-02-03T10:57:09;7.30;99.90
30069;DHT22;16894;49.456;10.644;2023-02-03T10:59:40;7.20;99.90
30069;DHT22;16894;49.456;10.644;2023-02-03T11:02:27;7.30;99.90
30069;DHT22;16894;49.456;10.644;2023-02-03T11:07:42;7.10;99.90
30069;DHT22;16894;49.456;10.644;2023-02-03T11:10:34;7.10;99.90
30069;DHT22;16894;49.456;10.644;2023-02-03T11:15:35;7.10;99.90
30069;DHT22;16894;49.456;10.644;2023-02-03T11:18:01;7.00;99.90
30069;DHT22;16894;49.456;10.644;2023-02-03T11:20:28;7.10;99.90
30069;DHT22;16894;49.456;10.644;2023-02-03T11:22:54;7.10;99.90
30069;DHT22;16894;49.456;10.644;2023-02-03T11:25:31;7.10;99.90
30069;DHT22;16894;49.456;10.644;2023-02-03T11:28:03;7.10;99.90
30069;DHT22;16894;49.456;10.644;2023-02-03T11:30:29;7.20;99.90
30069;DHT22;16894;49.456;10.644;2023-02-03T11:32:55;7.20;99.90
30069;DHT22;16894;49.456;10.644;2023-02-03T11:35:29;7.10;99.90
30069;DHT22;16894;49.456;10.644;2023-02-03T11:38:00;7.10;99.90
30069;DHT22;16894;49.456;10.644;2023-02-03T11:40:29;7.20;99.90
30069;DHT22;16894;49.456;10.644;2023-02-03T11:45:43;7.20;99.90
30069;DHT22;16894;49.456;10.644;2023-02-03T11:54:23;7.10;99.90
30069;DHT22;16894;49.456;10.644;2023-02-03T12:13:52;7.00;99.90
30069;DHT22;16894;49.456;10.644;2023-02-03T12:19:07;7.00;99.90
30069;DHT22;16894;49.456;10.644;2023-02-03T12:21:42;7.00;99.90
30069;DHT22;16894;49.456;10.644;2023-02-03T12:24:26;6.90;99.90
30069;DHT22;16894;49.456;10.644;2023-02-03T12:27:25;6.90;99.90
30069;DHT22;16894;49.456;10.644;2023-02-03T12:30:04;6.80;99.90
30069;DHT22;16894;49.456;10.644;2023-02-03T12:35:17;6.80;99.90
30069;DHT22;16894;49.456;10.644;2023-02-03T12:40:50;6.70;99.90
30069;DHT22;16894;49.456;10.644;2023-02-03T12:43:36;6.60;99.90
30069;DHT22;16894;49.456;10.644;2023-02-03T12:49:33;6.50;99.90
30069;DHT22;16894;49.456;10.644;2023-02-03T12:51:52;6.50;99.90
30069;DHT22;16894;49.456;10.644;2023-02-03T12:54:48;6.50;99.90
30069;DHT22;16894;49.456;10.644;2023-02-03T13:03:05;6.50;99.90
30069;DHT22;16894;49.456;10.644;2023-02-03T13:08:40;6.50;99.90
30069;DHT22;16894;49.456;10.644;2023-02-03T13:11:40;6.50;99.90
30069;DHT22;16894;49.456;10.644;2023-02-03T13:14:14;6.60;99.90
30069;DHT22;16894;49.456;10.644;2023-02-03T13:16:44;6.60;99.90
30069;DHT22;16894;49.456;10.644;2023-02-03T13:19:24;6.60;99.90
30069;DHT22;16894;49.456;10.644;2023-02-03T13:21:51;6.60;99.90
30069;DHT22;16894;49.456;10.644;2023-02-03T13:24:17;6.60;99.90
30069;DHT22;16894;49.456;10.644;2023-02-03T13:29:30;6.60;99.90
30069;DHT22;16894;49.456;10.644;2023-02-03T13:40:40;6.60;99.90
30069;DHT22;16894;49.456;10.644;2023-02-03T13:43:15;6.70;99.90
30069;DHT22;16894;49.456;10.644;2023-02-03T13:45:48;6.70;99.90
30069;DHT22;16894;49.456;10.644;2023-02-03T13:48:20;6.60;99.90
30069;DHT22;16894;49.456;10.644;2023-02-03T13:50:49;6.60;99.90
30069;DHT22;16894;49.456;10.644;2023-02-03T13:53:21;6.60;99.90
30069;DHT22;16894;49.456;10.644;2023-02-03T13:56:00;6.70;99.90
30069;DHT22;16894;49.456;10.644;2023-02-03T14:01:39;6.60;99.90
30069;DHT22;16894;49.456;10.644;2023-02-03T14:04:07;6.60;99.90
30069;DHT22;16894;49.456;10.644;2023-02-03T14:11:51;6.40;99.90
30069;DHT22;16894;49.456;10.644;2023-02-03T14:17:02;6.30;99.90
30069;DHT22;16894;49.456;10.644;2023-02-03T14:21:56;6.20;99.90
30069;DHT22;16894;49.456;10.644;2023-02-03T14:24:30;6.30;99.90
30069;DHT22;16894;49.456;10.644;2023-02-03T14:26:58;6.40;99.90
30069;DHT22;16894;49.456;10.644;2023-02-03T14:29:33;6.40;99.90
30069;DHT22;16894;49.456;10.644;2023-02-03T14:32:04;6.40;99.90
30069;DHT22;16894;49.456;10.644;2023-02-03T14:34:36;6.40;99.90
30069;DHT22;16894;49.456;10.644;2023-02-03T14:37:25;6.40;99.90
30069;DHT22;16894;49.456;10.644;2023-02-03T14:48:15;6.40;99.90
30069;DHT22;16894;49.456;10.644;2023-02-03T14:50:57;6.50;99.90
30069;DHT22;16894;49.456;10.644;2023-02-03T14:56:10;6.40;99.90
30069;DHT22;16894;49.456;10.644;2023-02-03T14:58:43;6.40;99.90
30069;DHT22;16894;49.456;10.644;2023-02-03T15:06:44;6.30;99.90
30069;DHT22;16894;49.456;10.644;2023-02-03T15:09:30;6.20;99.90
30069;DHT22;16894;49.456;10.644;2023-02-03T15:11:57;6.30;99.90
30069;DHT22;16894;49.456;10.644;2023-02-03T15:14:28;6.20;99.90
30069;DHT22;16894;49.456;10.644;2023-02-03T15:16:58;6.20;99.90
30069;DHT22;16894;49.456;10.644;2023-02-03T15:19:37;6.20;99.90
30069;DHT22;16894;49.456;10.644;2023-02-03T15:22:27;6.20;99.90
30069;DHT22;16894;49.456;10.644;2023-02-03T15:24:58;6.30;99.90
30069;DHT22;16894;49.456;10.644;2023-02-03T15:27:27;6.20;99.90
30069;DHT22;16894;49.456;10.644;2023-02-03T15:29:53;6.20;99.90
30069;DHT22;16894;49.456;10.644;2023-02-03T15:32:35;6.20;99.90
30069;DHT22;16894;49.456;10.644;2023-02-03T15:35:04;6.20;99.90
30069;DHT22;16894;49.456;10.644;2023-02-03T15:37:40;6.20;99.90
30069;DHT22;16894;49.456;10.644;2023-02-03T15:40:41;6.20;99.90
30069;DHT22;16894;49.456;10.644;2023-02-03T15:43:27;6.20;99.90
30069;DHT22;16894;49.456;10.644;2023-02-03T15:48:38;6.20;99.90
30069;DHT22;16894;49.456;10.644;2023-02-03T15:51:10;6.20;99.90
30069;DHT22;16894;49.456;10.644;2023-02-03T15:56:37;6.20;99.90
30069;DHT22;16894;49.456;10.644;2023-02-03T15:59:20;6.10;99.90
30069;DHT22;16894;49.456;10.644;2023-02-03T16:01:47;6.10;99.90
30069;DHT22;16894;49.456;10.644;2023-02-03T16:04:13;6.10;99.90
30069;DHT22;16894;49.456;10.644;2023-02-03T16:06:39;6.10;99.90
30069;DHT22;16894;49.456;10.644;2023-02-03T16:09:29;6.10;99.90
30069;DHT22;16894;49.456;10.644;2023-02-03T16:14:48;6.10;99.90
30069;DHT22;16894;49.456;10.644;2023-02-03T16:20:05;6.10;99.90
30069;DHT22;16894;49.456;10.644;2023-02-03T16:23:03;6.10;99.90
30069;DHT22;16894;49.456;10.644;2023-02-03T16:25:30;6.10;99.90
30069;DHT22;16894;49.456;10.644;2023-02-03T16:30:54;6.10;99.90
30069;DHT22;16894;49.456;10.644;2023-02-03T16:33:43;6.10;99.90
30069;DHT22;16894;49.456;10.644;2023-02-03T16:36:28;6.10;99.90
30069;DHT22;16894;49.456;10.644;2023-02-03T16:39:12;6.10;99.90
30069;DHT22;16894;49.456;10.644;2023-02-03T16:41:58;6.10;99.90
30069;DHT22;16894;49.456;10.644;2023-02-03T16:44:43;6.10;99.90
30069;DHT22;16894;49.456;10.644;2023-02-03T16:47:29;6.10;99.90
30069;DHT22;16894;49.456;10.644;2023-02-03T16:50:17;6.20;99.90
30069;DHT22;16894;49.456;10.644;2023-02-03T16:53:02;6.20;99.90
30069;DHT22;16894;49.456;10.644;2023-02-03T16:55:27;6.20;99.90
30069;DHT22;16894;49.456;10.644;2023-02-03T16:57:53;6.20;99.90
30069;DHT22;16894;49.456;10.644;2023-02-03T17:00:19;6.20;99.90
30069;DHT22;16894;49.456;10.644;2023-02-03T17:02:47;6.30;99.90
30069;DHT22;16894;49.456;10.644;2023-02-03T17:05:14;6.20;99.90
30069;DHT22;16894;49.456;10.644;2023-02-03T17:07:39;6.30;99.90
30069;DHT22;16894;49.456;10.644;2023-02-03T17:10:09;6.30;99.90
30069;DHT22;16894;49.456;10.644;2023-02-03T17:12:35;6.30;99.90
30069;DHT22;16894;49.456;10.644;2023-02-03T17:15:03;6.30;99.90
30069;DHT22;16894;49.456;10.644;2023-02-03T17:17:29;6.30;99.90
30069;DHT22;16894;49.456;10.644;2023-02-03T17:19:55;6.40;99.90
30069;DHT22;16894;49.456;10.644;2023-02-03T17:22:21;6.40;99.90
30069;DHT22;16894;49.456;10.644;2023-02-03T17:24:47;6.40;99.90
30069;DHT22;16894;49.456;10.644;2023-02-03T17:27:13;6.40;99.90
30069;DHT22;16894;49.456;10.644;2023-02-03T17:29:38;6.40;99.90
30069;DHT22;16894;49.456;10.644;2023-02-03T17:32:04;6.40;99.90
30069;DHT22;16894;49.456;10.644;2023-02-03T17:34:30;6.40;99.90
30069;DHT22;16894;49.456;10.644;2023-02-03T17:36:55;6.40;99.90
30069;DHT22;16894;49.456;10.644;2023-02-03T17:39:21;6.40;99.90
30069;DHT22;16894;49.456;10.644;2023-02-03T17:41:47;6.40;99.90
30069;DHT22;16894;49.456;10.644;2023-02-03T17:44:12;6.40;99.90
30069;DHT22;16894;49.456;10.644;2023-02-03T17:46:38;6.40;99.90
30069;DHT22;16894;49.456;10.644;2023-02-03T17:49:04;6.40;99.90
30069;DHT22;16894;49.456;10.644;2023-02-03T17:51:29;6.40;99.90
30069;DHT22;16894;49.456;10.644;2023-02-03T17:53:56;6.40;99.90
30069;DHT22;16894;49.456;10.644;2023-02-03T17:56:23;6.40;99.90
30069;DHT22;16894;49.456;10.644;2023-02-03T17:58:56;6.40;99.90
30069;DHT22;16894;49.456;10.644;2023-02-03T18:01:23;6.40;99.90
30069;DHT22;16894;49.456;10.644;2023-02-03T18:03:50;6.50;99.90
30069;DHT22;16894;49.456;10.644;2023-02-03T18:06:18;6.50;99.90
30069;DHT22;16894;49.456;10.644;2023-02-03T18:08:45;6.50;99.90
30069;DHT22;16894;49.456;10.644;2023-02-03T18:11:11;6.40;99.90
30069;DHT22;16894;49.456;10.644;2023-02-03T18:13:39;6.40;99.90
30069;DHT22;16894;49.456;10.644;2023-02-03T18:16:06;6.50;99.90
30069;DHT22;16894;49.456;10.644;2023-02-03T18:18:33;6.40;99.90
30069;DHT22;16894;49.456;10.644;2023-02-03T18:21:12;6.40;99.90